sensor_id;sensor_type;location;lat;lon;timestamp;temperature;humidity
75363;DHT22;64122;51.988;5.892;2023-03-12T00:01:30;5.54;53.96
75363;DHT22;64122;51.988;5.892;2023-03-12T00:04:00;5.61;53.72
75363;DHT22;64122;51.988;5.892;2023-03-12T00:06:32;5.63;53.62
75363;DHT22;64122;51.988;5.892;2023-03-12T00:09:02;5.67;53.63
75363;DHT22;64122;51.988;5.892;2023-03-12T00:11:31;5.66;53.59
75363;DHT22;64122;51.988;5.892;2023-03-12T00:14:01;5.67;53.44
75363;DHT22;64122;51.988;5.892;2023-03-12T00:16:30;5.67;53.56
75363;DHT22;64122;51.988;5.892;2023-03-12T00:18:59;5.68;53.44
75363;DHT22;64122;51.988;5.892;2023-03-12T00:21:28;5.69;53.23
75363;DHT22;64122;51.988;5.892;2023-03-12T00:24:00;5.71;52.91
75363;DHT22;64122;51.988;5.892;2023-03-12T00:26:31;5.71;52.82
75363;DHT22;64122;51.988;5.892;2023-03-12T00:29:00;5.74;52.62
75363;DHT22;64122;51.988;5.892;2023-03-12T00:31:31;5.76;52.29
75363;DHT22;64122;51.988;5.892;2023-03-12T00:34:01;5.79;52.20
75363;DHT22;64122;51.988;5.892;2023-03-12T00:36:31;5.79;52.16
75363;DHT22;64122;51.988;5.892;2023-03-12T00:39:04;5.81;51.92
75363;DHT22;64122;51.988;5.892;2023-03-12T00:41:33;5.81;52.00
75363;DHT22;64122;51.988;5.892;2023-03-12T00:44:02;5.78;51.96
75363;DHT22;64122;51.988;5.892;2023-03-12T00:46:32;5.78;52.10
75363;DHT22;64122;51.988;5.892;2023-03-12T00:49:01;5.79;51.92
75363;DHT22;64122;51.988;5.892;2023-03-12T00:51:30;5.80;51.82
75363;DHT22;64122;51.988;5.892;2023-03-12T00:54:03;5.83;51.81
75363;DHT22;64122;51.988;5.892;2023-03-12T00:56:32;5.85;51.78
75363;DHT22;64122;51.988;5.892;2023-03-12T00:59:02;5.85;51.65
75363;DHT22;64122;51.988;5.892;2023-03-12T01:01:31;5.89;51.86
75363;DHT22;64122;51.988;5.892;2023-03-12T01:04:00;5.89;51.62
75363;DHT22;64122;51.988;5.892;2023-03-12T01:06:29;5.92;51.53
75363;DHT22;64122;51.988;5.892;2023-03-12T01:09:00;5.94;51.31
75363;DHT22;64122;51.988;5.892;2023-03-12T01:11:33;5.96;51.62
75363;DHT22;64122;51.988;5.892;2023-03-12T01:14:04;6.01;51.54
75363;DHT22;64122;51.988;5.892;2023-03-12T01:16:33;5.98;51.60
75363;DHT22;64122;51.988;5.892;2023-03-12T01:19:03;5.98;51.40
75363;DHT22;64122;51.988;5.892;2023-03-12T01:21:32;5.99;51.56
75363;DHT22;64122;51.988;5.892;2023-03-12T01:24:01;6.01;51.40
75363;DHT22;64122;51.988;5.892;2023-03-12T01:26:33;5.99;51.73
75363;DHT22;64122;51.988;5.892;2023-03-12T01:29:02;5.97;51.67
75363;DHT22;64122;51.988;5.892;2023-03-12T01:31:31;5.95;51.77
75363;DHT22;64122;51.988;5.892;2023-03-12T01:34:01;5.90;51.81
75363;DHT22;64122;51.988;5.892;2023-03-12T01:36:30;5.85;51.92
75363;DHT22;64122;51.988;5.892;2023-03-12T01:38:59;5.80;52.00
75363;DHT22;64122;51.988;5.892;2023-03-12T01:41:30;5.80;52.01
75363;DHT22;64122;51.988;5.892;2023-03-12T01:44:04;5.78;52.17
75363;DHT22;64122;51.988;5.892;2023-03-12T01:46:34;5.76;51.86
75363;DHT22;64122;51.988;5.892;2023-03-12T01:49:12;5.75;52.01
75363;DHT22;64122;51.988;5.892;2023-03-12T01:51:45;5.69;51.95
75363;DHT22;64122;51.988;5.892;2023-03-12T01:54:18;5.64;52.02
75363;DHT22;64122;51.988;5.892;2023-03-12T01:56:48;5.59;51.98
75363;DHT22;64122;51.988;5.892;2023-03-12T01:59:23;5.55;52.00
75363;DHT22;64122;51.988;5.892;2023-03-12T02:01:53;5.54;52.17
75363;DHT22;64122;51.988;5.892;2023-03-12T02:04:24;5.53;52.69
75363;DHT22;64122;51.988;5.892;2023-03-12T02:06:58;5.53;52.27
75363;DHT22;64122;51.988;5.892;2023-03-12T02:09:31;5.56;52.10
75363;DHT22;64122;51.988;5.892;2023-03-12T02:12:00;5.60;52.06
75363;DHT22;64122;51.988;5.892;2023-03-12T02:14:32;5.65;52.12
75363;DHT22;64122;51.988;5.892;2023-03-12T02:17:02;5.68;52.24
75363;DHT22;64122;51.988;5.892;2023-03-12T02:19:37;5.68;52.37
75363;DHT22;64122;51.988;5.892;2023-03-12T02:22:10;5.67;52.45
75363;DHT22;64122;51.988;5.892;2023-03-12T02:24:45;5.66;52.25
75363;DHT22;64122;51.988;5.892;2023-03-12T02:27:20;5.69;52.10
75363;DHT22;64122;51.988;5.892;2023-03-12T02:29:50;5.75;52.11
75363;DHT22;64122;51.988;5.892;2023-03-12T02:32:23;5.79;51.98
75363;DHT22;64122;51.988;5.892;2023-03-12T02:34:55;5.78;52.13
75363;DHT22;64122;51.988;5.892;2023-03-12T02:37:24;5.81;52.04
75363;DHT22;64122;51.988;5.892;2023-03-12T02:39:59;5.82;51.88
75363;DHT22;64122;51.988;5.892;2023-03-12T02:42:35;5.83;51.87
75363;DHT22;64122;51.988;5.892;2023-03-12T02:45:06;5.84;52.01
75363;DHT22;64122;51.988;5.892;2023-03-12T02:47:35;5.83;51.85
75363;DHT22;64122;51.988;5.892;2023-03-12T02:50:06;5.84;51.78
75363;DHT22;64122;51.988;5.892;2023-03-12T02:52:35;5.87;51.95
75363;DHT22;64122;51.988;5.892;2023-03-12T02:55:06;5.90;51.82
75363;DHT22;64122;51.988;5.892;2023-03-12T02:57:38;5.89;51.56
75363;DHT22;64122;51.988;5.892;2023-03-12T03:00:13;5.90;51.90
75363;DHT22;64122;51.988;5.892;2023-03-12T03:02:46;5.90;51.91
75363;DHT22;64122;51.988;5.892;2023-03-12T03:05:16;5.85;51.97
75363;DHT22;64122;51.988;5.892;2023-03-12T03:07:46;5.83;52.18
75363;DHT22;64122;51.988;5.892;2023-03-12T03:10:16;5.82;52.17
75363;DHT22;64122;51.988;5.892;2023-03-12T03:12:48;5.84;52.17
75363;DHT22;64122;51.988;5.892;2023-03-12T03:15:17;5.90;52.02
75363;DHT22;64122;51.988;5.892;2023-03-12T03:17:47;5.89;52.13
75363;DHT22;64122;51.988;5.892;2023-03-12T03:20:16;5.91;51.91
75363;DHT22;64122;51.988;5.892;2023-03-12T03:22:46;5.86;52.00
75363;DHT22;64122;51.988;5.892;2023-03-12T03:25:16;5.87;52.10
75363;DHT22;64122;51.988;5.892;2023-03-12T03:27:49;5.90;52.14
75363;DHT22;64122;51.988;5.892;2023-03-12T03:30:19;5.91;52.04
75363;DHT22;64122;51.988;5.892;2023-03-12T03:32:50;5.90;51.82
75363;DHT22;64122;51.988;5.892;2023-03-12T03:35:19;5.91;52.02
75363;DHT22;64122;51.988;5.892;2023-03-12T03:37:49;5.95;51.93
75363;DHT22;64122;51.988;5.892;2023-03-12T03:40:19;5.98;51.73
75363;DHT22;64122;51.988;5.892;2023-03-12T03:42:51;5.97;51.67
75363;DHT22;64122;51.988;5.892;2023-03-12T03:45:20;5.98;51.81
75363;DHT22;64122;51.988;5.892;2023-03-12T03:47:50;5.98;51.85
75363;DHT22;64122;51.988;5.892;2023-03-12T03:50:20;5.97;51.75
75363;DHT22;64122;51.988;5.892;2023-03-12T03:52:49;5.97;51.79
75363;DHT22;64122;51.988;5.892;2023-03-12T03:55:18;5.95;52.02
75363;DHT22;64122;51.988;5.892;2023-03-12T03:57:48;5.96;51.82
75363;DHT22;64122;51.988;5.892;2023-03-12T04:00:20;5.92;51.83
75363;DHT22;64122;51.988;5.892;2023-03-12T04:02:51;5.91;51.91
75363;DHT22;64122;51.988;5.892;2023-03-12T04:05:21;5.91;51.98
75363;DHT22;64122;51.988;5.892;2023-03-12T04:07:51;5.90;52.01
75363;DHT22;64122;51.988;5.892;2023-03-12T04:10:24;5.86;52.12
75363;DHT22;64122;51.988;5.892;2023-03-12T04:12:53;5.84;52.25
75363;DHT22;64122;51.988;5.892;2023-03-12T04:15:25;5.83;52.31
75363;DHT22;64122;51.988;5.892;2023-03-12T04:17:55;5.80;52.40
75363;DHT22;64122;51.988;5.892;2023-03-12T04:20:25;5.79;52.57
75363;DHT22;64122;51.988;5.892;2023-03-12T04:22:54;5.80;52.66
75363;DHT22;64122;51.988;5.892;2023-03-12T04:25:23;5.83;52.72
75363;DHT22;64122;51.988;5.892;2023-03-12T04:27:53;5.86;52.71
75363;DHT22;64122;51.988;5.892;2023-03-12T04:30:25;5.91;52.96
75363;DHT22;64122;51.988;5.892;2023-03-12T04:32:54;5.91;53.27
75363;DHT22;64122;51.988;5.892;2023-03-12T04:35:24;5.93;53.30
75363;DHT22;64122;51.988;5.892;2023-03-12T04:37:53;5.91;53.48
75363;DHT22;64122;51.988;5.892;2023-03-12T04:40:23;5.94;53.48
75363;DHT22;64122;51.988;5.892;2023-03-12T04:42:52;5.93;53.79
75363;DHT22;64122;51.988;5.892;2023-03-12T04:45:24;5.95;53.72
75363;DHT22;64122;51.988;5.892;2023-03-12T04:47:54;5.96;53.84
75363;DHT22;64122;51.988;5.892;2023-03-12T04:50:23;5.99;53.94
75363;DHT22;64122;51.988;5.892;2023-03-12T04:52:53;6.01;54.10
75363;DHT22;64122;51.988;5.892;2023-03-12T04:55:22;6.05;54.22
75363;DHT22;64122;51.988;5.892;2023-03-12T04:57:52;6.09;54.42
75363;DHT22;64122;51.988;5.892;2023-03-12T05:00:25;6.08;54.46
75363;DHT22;64122;51.988;5.892;2023-03-12T05:02:55;6.10;54.49
75363;DHT22;64122;51.988;5.892;2023-03-12T05:05:24;6.12;54.78
75363;DHT22;64122;51.988;5.892;2023-03-12T05:07:53;6.13;54.78
75363;DHT22;64122;51.988;5.892;2023-03-12T05:10:23;6.14;55.06
75363;DHT22;64122;51.988;5.892;2023-03-12T05:12:52;6.14;55.20
75363;DHT22;64122;51.988;5.892;2023-03-12T05:15:22;6.14;55.52
75363;DHT22;64122;51.988;5.892;2023-03-12T05:17:53;6.12;55.76
75363;DHT22;64122;51.988;5.892;2023-03-12T05:20:23;6.10;55.90
75363;DHT22;64122;51.988;5.892;2023-03-12T05:22:52;6.09;55.83
75363;DHT22;64122;51.988;5.892;2023-03-12T05:25:22;6.10;55.97
75363;DHT22;64122;51.988;5.892;2023-03-12T05:27:51;6.09;56.10
75363;DHT22;64122;51.988;5.892;2023-03-12T05:30:21;6.09;56.19
75363;DHT22;64122;51.988;5.892;2023-03-12T05:32:53;6.05;56.25
75363;DHT22;64122;51.988;5.892;2023-03-12T05:35:23;6.04;56.46
75363;DHT22;64122;51.988;5.892;2023-03-12T05:37:52;6.02;56.58
75363;DHT22;64122;51.988;5.892;2023-03-12T05:40:21;6.05;56.51
75363;DHT22;64122;51.988;5.892;2023-03-12T05:42:51;6.05;56.44
75363;DHT22;64122;51.988;5.892;2023-03-12T05:45:24;6.06;56.55
75363;DHT22;64122;51.988;5.892;2023-03-12T05:47:58;6.04;56.39
75363;DHT22;64122;51.988;5.892;2023-03-12T05:50:28;5.87;56.55
75363;DHT22;64122;51.988;5.892;2023-03-12T05:52:57;5.95;56.68
75363;DHT22;64122;51.988;5.892;2023-03-12T05:55:27;5.99;56.60
75363;DHT22;64122;51.988;5.892;2023-03-12T05:57:57;6.01;56.55
75363;DHT22;64122;51.988;5.892;2023-03-12T06:00:26;6.00;56.57
75363;DHT22;64122;51.988;5.892;2023-03-12T06:02:59;6.05;56.64
75363;DHT22;64122;51.988;5.892;2023-03-12T06:05:29;6.05;56.70
75363;DHT22;64122;51.988;5.892;2023-03-12T06:07:59;6.06;56.61
75363;DHT22;64122;51.988;5.892;2023-03-12T06:10:29;6.06;56.78
75363;DHT22;64122;51.988;5.892;2023-03-12T06:12:58;6.08;56.73
75363;DHT22;64122;51.988;5.892;2023-03-12T06:15:28;6.10;56.68
75363;DHT22;64122;51.988;5.892;2023-03-12T06:18:00;6.13;56.67
75363;DHT22;64122;51.988;5.892;2023-03-12T06:20:29;6.16;56.59
75363;DHT22;64122;51.988;5.892;2023-03-12T06:22:58;6.17;56.63
75363;DHT22;64122;51.988;5.892;2023-03-12T06:25:27;6.19;56.71
75363;DHT22;64122;51.988;5.892;2023-03-12T06:27:57;6.20;56.70
75363;DHT22;64122;51.988;5.892;2023-03-12T06:30:26;6.19;56.83
75363;DHT22;64122;51.988;5.892;2023-03-12T06:32:55;6.17;57.00
75363;DHT22;64122;51.988;5.892;2023-03-12T06:35:27;6.17;57.24
75363;DHT22;64122;51.988;5.892;2023-03-12T06:37:56;6.17;57.45
75363;DHT22;64122;51.988;5.892;2023-03-12T06:40:25;6.16;57.81
75363;DHT22;64122;51.988;5.892;2023-03-12T06:42:55;6.15;57.95
75363;DHT22;64122;51.988;5.892;2023-03-12T06:45:24;6.14;58.24
75363;DHT22;64122;51.988;5.892;2023-03-12T06:47:53;6.16;58.31
75363;DHT22;64122;51.988;5.892;2023-03-12T06:50:22;6.15;58.43
75363;DHT22;64122;51.988;5.892;2023-03-12T06:52:54;6.14;58.61
75363;DHT22;64122;51.988;5.892;2023-03-12T06:55:23;6.12;58.64
75363;DHT22;64122;51.988;5.892;2023-03-12T06:57:53;6.11;59.08
75363;DHT22;64122;51.988;5.892;2023-03-12T07:00:22;6.14;58.96
75363;DHT22;64122;51.988;5.892;2023-03-12T07:02:51;6.13;59.09
75363;DHT22;64122;51.988;5.892;2023-03-12T07:05:20;6.12;59.28
75363;DHT22;64122;51.988;5.892;2023-03-12T07:07:49;6.14;59.69
75363;DHT22;64122;51.988;5.892;2023-03-12T07:10:22;6.13;59.71
75363;DHT22;64122;51.988;5.892;2023-03-12T07:12:53;6.19;60.04
75363;DHT22;64122;51.988;5.892;2023-03-12T07:15:22;6.21;60.12
75363;DHT22;64122;51.988;5.892;2023-03-12T07:17:52;6.26;60.33
75363;DHT22;64122;51.988;5.892;2023-03-12T07:20:22;6.33;60.47
75363;DHT22;64122;51.988;5.892;2023-03-12T07:22:51;6.37;60.51
75363;DHT22;64122;51.988;5.892;2023-03-12T07:25:22;6.41;60.73
75363;DHT22;64122;51.988;5.892;2023-03-12T07:27:52;6.44;60.83
75363;DHT22;64122;51.988;5.892;2023-03-12T07:30:21;6.45;60.99
75363;DHT22;64122;51.988;5.892;2023-03-12T07:32:51;6.43;61.22
75363;DHT22;64122;51.988;5.892;2023-03-12T07:35:20;6.43;61.70
75363;DHT22;64122;51.988;5.892;2023-03-12T07:37:49;6.43;61.95
75363;DHT22;64122;51.988;5.892;2023-03-12T07:40:18;6.44;62.12
75363;DHT22;64122;51.988;5.892;2023-03-12T07:42:52;6.43;62.43
75363;DHT22;64122;51.988;5.892;2023-03-12T07:45:22;6.42;62.70
75363;DHT22;64122;51.988;5.892;2023-03-12T07:47:51;6.41;63.19
75363;DHT22;64122;51.988;5.892;2023-03-12T07:50:20;6.44;63.34
75363;DHT22;64122;51.988;5.892;2023-03-12T07:52:52;6.46;63.43
75363;DHT22;64122;51.988;5.892;2023-03-12T07:55:22;6.49;63.57
75363;DHT22;64122;51.988;5.892;2023-03-12T07:57:53;6.48;63.84
75363;DHT22;64122;51.988;5.892;2023-03-12T08:00:24;6.49;63.96
75363;DHT22;64122;51.988;5.892;2023-03-12T08:02:54;6.50;64.19
75363;DHT22;64122;51.988;5.892;2023-03-12T08:05:23;6.49;64.27
75363;DHT22;64122;51.988;5.892;2023-03-12T08:07:52;6.50;64.43
75363;DHT22;64122;51.988;5.892;2023-03-12T08:10:22;6.52;64.51
75363;DHT22;64122;51.988;5.892;2023-03-12T08:12:54;6.52;64.71
75363;DHT22;64122;51.988;5.892;2023-03-12T08:15:23;6.52;65.07
75363;DHT22;64122;51.988;5.892;2023-03-12T08:17:53;6.54;65.30
75363;DHT22;64122;51.988;5.892;2023-03-12T08:20:22;6.55;65.58
75363;DHT22;64122;51.988;5.892;2023-03-12T08:22:51;6.58;65.69
75363;DHT22;64122;51.988;5.892;2023-03-12T08:25:20;6.64;65.75
75363;DHT22;64122;51.988;5.892;2023-03-12T08:27:49;6.65;65.91
75363;DHT22;64122;51.988;5.892;2023-03-12T08:30:22;6.66;65.99
75363;DHT22;64122;51.988;5.892;2023-03-12T08:32:51;6.68;66.22
75363;DHT22;64122;51.988;5.892;2023-03-12T08:35:20;6.72;66.30
75363;DHT22;64122;51.988;5.892;2023-03-12T08:37:49;6.74;66.44
75363;DHT22;64122;51.988;5.892;2023-03-12T08:40:18;6.72;66.77
75363;DHT22;64122;51.988;5.892;2023-03-12T08:42:48;6.78;66.73
75363;DHT22;64122;51.988;5.892;2023-03-12T08:45:17;6.79;66.80
75363;DHT22;64122;51.988;5.892;2023-03-12T08:47:49;6.82;66.93
75363;DHT22;64122;51.988;5.892;2023-03-12T08:50:18;6.87;66.89
75363;DHT22;64122;51.988;5.892;2023-03-12T08:52:50;6.86;67.14
75363;DHT22;64122;51.988;5.892;2023-03-12T08:55:19;6.87;67.41
75363;DHT22;64122;51.988;5.892;2023-03-12T08:57:48;6.90;67.43
75363;DHT22;64122;51.988;5.892;2023-03-12T09:00:18;6.93;67.47
75363;DHT22;64122;51.988;5.892;2023-03-12T09:02:50;6.98;67.52
75363;DHT22;64122;51.988;5.892;2023-03-12T09:05:23;7.02;67.75
75363;DHT22;64122;51.988;5.892;2023-03-12T09:07:55;7.04;67.78
75363;DHT22;64122;51.988;5.892;2023-03-12T09:10:24;7.05;67.89
75363;DHT22;64122;51.988;5.892;2023-03-12T09:12:54;7.11;68.13
75363;DHT22;64122;51.988;5.892;2023-03-12T09:15:23;7.13;68.14
75363;DHT22;64122;51.988;5.892;2023-03-12T09:17:55;7.14;68.25
75363;DHT22;64122;51.988;5.892;2023-03-12T09:20:25;7.15;68.58
75363;DHT22;64122;51.988;5.892;2023-03-12T09:22:54;7.19;68.49
75363;DHT22;64122;51.988;5.892;2023-03-12T09:25:23;7.26;68.56
75363;DHT22;64122;51.988;5.892;2023-03-12T09:27:52;7.29;68.61
75363;DHT22;64122;51.988;5.892;2023-03-12T09:30:22;7.34;68.64
75363;DHT22;64122;51.988;5.892;2023-03-12T09:32:57;7.39;68.62
75363;DHT22;64122;51.988;5.892;2023-03-12T09:35:27;7.46;68.64
75363;DHT22;64122;51.988;5.892;2023-03-12T09:37:56;7.48;68.81
75363;DHT22;64122;51.988;5.892;2023-03-12T09:40:29;7.54;68.83
75363;DHT22;64122;51.988;5.892;2023-03-12T09:43:02;7.61;68.68
75363;DHT22;64122;51.988;5.892;2023-03-12T09:45:36;7.68;68.71
75363;DHT22;64122;51.988;5.892;2023-03-12T09:48:13;7.78;68.52
75363;DHT22;64122;51.988;5.892;2023-03-12T09:50:45;7.88;68.67
75363;DHT22;64122;51.988;5.892;2023-03-12T09:53:21;7.99;68.56
75363;DHT22;64122;51.988;5.892;2023-03-12T09:55:54;8.09;68.51
75363;DHT22;64122;51.988;5.892;2023-03-12T09:58:26;8.16;68.59
75363;DHT22;64122;51.988;5.892;2023-03-12T10:01:00;8.20;68.71
75363;DHT22;64122;51.988;5.892;2023-03-12T10:03:48;8.23;68.42
75363;DHT22;64122;51.988;5.892;2023-03-12T10:06:22;8.31;68.76
75363;DHT22;64122;51.988;5.892;2023-03-12T10:09:02;8.35;68.68
75363;DHT22;64122;51.988;5.892;2023-03-12T10:11:44;8.42;68.66
75363;DHT22;64122;51.988;5.892;2023-03-12T10:14:36;8.49;68.54
75363;DHT22;64122;51.988;5.892;2023-03-12T10:17:17;8.61;68.67
75363;DHT22;64122;51.988;5.892;2023-03-12T10:20:09;8.68;68.52
75363;DHT22;64122;51.988;5.892;2023-03-12T10:22:55;8.74;68.70
75363;DHT22;64122;51.988;5.892;2023-03-12T10:25:31;8.79;68.93
75363;DHT22;64122;51.988;5.892;2023-03-12T10:28:11;8.83;68.78
75363;DHT22;64122;51.988;5.892;2023-03-12T10:30:47;8.87;69.10
75363;DHT22;64122;51.988;5.892;2023-03-12T10:33:19;8.91;69.23
75363;DHT22;64122;51.988;5.892;2023-03-12T10:35:51;8.95;69.25
75363;DHT22;64122;51.988;5.892;2023-03-12T10:38:25;9.03;69.29
75363;DHT22;64122;51.988;5.892;2023-03-12T10:40:55;9.15;69.22
75363;DHT22;64122;51.988;5.892;2023-03-12T10:43:25;9.20;69.29
75363;DHT22;64122;51.988;5.892;2023-03-12T10:46:00;9.24;69.31
75363;DHT22;64122;51.988;5.892;2023-03-12T10:48:32;9.30;69.47
75363;DHT22;64122;51.988;5.892;2023-03-12T10:51:06;9.38;69.49
75363;DHT22;64122;51.988;5.892;2023-03-12T10:53:37;9.46;69.60
75363;DHT22;64122;51.988;5.892;2023-03-12T10:56:11;9.53;69.61
75363;DHT22;64122;51.988;5.892;2023-03-12T10:58:42;9.61;69.69
75363;DHT22;64122;51.988;5.892;2023-03-12T11:01:18;9.66;69.53
75363;DHT22;64122;51.988;5.892;2023-03-12T11:03:48;9.76;69.61
75363;DHT22;64122;51.988;5.892;2023-03-12T11:06:26;9.86;69.36
75363;DHT22;64122;51.988;5.892;2023-03-12T11:09:04;9.90;69.42
75363;DHT22;64122;51.988;5.892;2023-03-12T11:11:35;9.94;69.76
75363;DHT22;64122;51.988;5.892;2023-03-12T11:14:07;9.96;69.99
75363;DHT22;64122;51.988;5.892;2023-03-12T11:16:38;10.04;70.09
75363;DHT22;64122;51.988;5.892;2023-03-12T11:19:11;10.05;70.24
75363;DHT22;64122;51.988;5.892;2023-03-12T11:21:55;10.08;70.10
75363;DHT22;64122;51.988;5.892;2023-03-12T11:24:25;10.13;70.86
75363;DHT22;64122;51.988;5.892;2023-03-12T11:26:58;10.21;70.84
75363;DHT22;64122;51.988;5.892;2023-03-12T11:29:32;10.30;71.03
75363;DHT22;64122;51.988;5.892;2023-03-12T11:32:11;10.34;71.00
75363;DHT22;64122;51.988;5.892;2023-03-12T11:34:43;10.40;71.08
75363;DHT22;64122;51.988;5.892;2023-03-12T11:37:22;10.42;71.11
75363;DHT22;64122;51.988;5.892;2023-03-12T11:40:12;10.43;70.95
75363;DHT22;64122;51.988;5.892;2023-03-12T11:42:55;10.45;71.43
75363;DHT22;64122;51.988;5.892;2023-03-12T11:45:34;10.54;71.54
75363;DHT22;64122;51.988;5.892;2023-03-12T11:48:13;10.60;71.57
75363;DHT22;64122;51.988;5.892;2023-03-12T11:50:57;10.67;71.51
75363;DHT22;64122;51.988;5.892;2023-03-12T11:53:55;10.72;71.22
75363;DHT22;64122;51.988;5.892;2023-03-12T11:56:28;10.80;71.64
75363;DHT22;64122;51.988;5.892;2023-03-12T11:59:11;10.90;71.22
75363;DHT22;64122;51.988;5.892;2023-03-12T12:01:54;11.02;71.19
75363;DHT22;64122;51.988;5.892;2023-03-12T12:04:52;11.10;70.97
75363;DHT22;64122;51.988;5.892;2023-03-12T12:07:37;11.16;71.32
75363;DHT22;64122;51.988;5.892;2023-03-12T12:10:21;11.24;71.40
75363;DHT22;64122;51.988;5.892;2023-03-12T12:12:58;11.39;71.24
75363;DHT22;64122;51.988;5.892;2023-03-12T12:15:36;11.60;70.90
75363;DHT22;64122;51.988;5.892;2023-03-12T12:21:05;11.70;70.81
75363;DHT22;64122;51.988;5.892;2023-03-12T12:23:45;11.68;70.93
75363;DHT22;64122;51.988;5.892;2023-03-12T12:26:24;11.74;70.90
75363;DHT22;64122;51.988;5.892;2023-03-12T12:29:17;11.91;70.61
75363;DHT22;64122;51.988;5.892;2023-03-12T12:31:52;11.99;70.43
75363;DHT22;64122;51.988;5.892;2023-03-12T12:34:52;11.91;70.53
75363;DHT22;64122;51.988;5.892;2023-03-12T12:37:45;11.88;70.68
75363;DHT22;64122;51.988;5.892;2023-03-12T12:40:22;11.90;70.74
75363;DHT22;64122;51.988;5.892;2023-03-12T12:43:08;11.89;70.47
75363;DHT22;64122;51.988;5.892;2023-03-12T12:45:40;11.88;70.42
75363;DHT22;64122;51.988;5.892;2023-03-12T12:48:15;11.86;70.17
75363;DHT22;64122;51.988;5.892;2023-03-12T12:50:46;11.85;70.16
75363;DHT22;64122;51.988;5.892;2023-03-12T12:53:20;11.84;70.15
75363;DHT22;64122;51.988;5.892;2023-03-12T12:56:00;11.88;70.05
75363;DHT22;64122;51.988;5.892;2023-03-12T12:58:52;11.94;70.03
75363;DHT22;64122;51.988;5.892;2023-03-12T13:01:25;12.00;70.05
75363;DHT22;64122;51.988;5.892;2023-03-12T13:03:58;12.02;69.83
75363;DHT22;64122;51.988;5.892;2023-03-12T13:06:28;11.96;70.06
75363;DHT22;64122;51.988;5.892;2023-03-12T13:09:00;11.98;69.98
75363;DHT22;64122;51.988;5.892;2023-03-12T13:11:38;11.94;69.87
75363;DHT22;64122;51.988;5.892;2023-03-12T13:14:19;11.97;69.65
75363;DHT22;64122;51.988;5.892;2023-03-12T13:16:49;12.02;69.61
75363;DHT22;64122;51.988;5.892;2023-03-12T13:19:38;12.05;69.39
75363;DHT22;64122;51.988;5.892;2023-03-12T13:22:17;12.02;69.45
75363;DHT22;64122;51.988;5.892;2023-03-12T13:24:55;12.06;69.20
75363;DHT22;64122;51.988;5.892;2023-03-12T13:27:29;12.17;68.93
75363;DHT22;64122;51.988;5.892;2023-03-12T13:33:11;12.45;68.13
75363;DHT22;64122;51.988;5.892;2023-03-12T13:35:40;12.64;67.70
75363;DHT22;64122;51.988;5.892;2023-03-12T13:38:11;12.73;67.27
75363;DHT22;64122;51.988;5.892;2023-03-12T13:40:55;12.78;67.04
75363;DHT22;64122;51.988;5.892;2023-03-12T13:43:46;12.81;66.73
75363;DHT22;64122;51.988;5.892;2023-03-12T13:46:41;12.78;66.59
75363;DHT22;64122;51.988;5.892;2023-03-12T13:49:16;12.75;66.24
75363;DHT22;64122;51.988;5.892;2023-03-12T13:51:57;12.75;66.17
75363;DHT22;64122;51.988;5.892;2023-03-12T13:54:30;12.82;65.95
75363;DHT22;64122;51.988;5.892;2023-03-12T13:57:03;12.86;65.54
75363;DHT22;64122;51.988;5.892;2023-03-12T13:59:33;12.92;65.18
75363;DHT22;64122;51.988;5.892;2023-03-12T14:02:16;12.95;64.92
75363;DHT22;64122;51.988;5.892;2023-03-12T14:04:48;13.01;64.24
75363;DHT22;64122;51.988;5.892;2023-03-12T14:10:26;13.27;63.65
75363;DHT22;64122;51.988;5.892;2023-03-12T14:13:06;13.48;62.92
75363;DHT22;64122;51.988;5.892;2023-03-12T14:15:43;13.69;62.39
75363;DHT22;64122;51.988;5.892;2023-03-12T14:18:19;13.68;62.46
75363;DHT22;64122;51.988;5.892;2023-03-12T14:20:53;13.65;62.04
75363;DHT22;64122;51.988;5.892;2023-03-12T14:23:27;13.68;62.18
75363;DHT22;64122;51.988;5.892;2023-03-12T14:25:56;13.54;62.90
75363;DHT22;64122;51.988;5.892;2023-03-12T14:28:28;13.58;61.52
75363;DHT22;64122;51.988;5.892;2023-03-12T14:30:59;13.63;61.66
75363;DHT22;64122;51.988;5.892;2023-03-12T14:33:37;13.77;61.50
75363;DHT22;64122;51.988;5.892;2023-03-12T14:36:13;13.73;60.47
75363;DHT22;64122;51.988;5.892;2023-03-12T14:38:45;13.69;60.67
75363;DHT22;64122;51.988;5.892;2023-03-12T14:41:18;13.61;60.37
75363;DHT22;64122;51.988;5.892;2023-03-12T14:43:51;13.56;60.25
75363;DHT22;64122;51.988;5.892;2023-03-12T14:46:22;13.43;59.95
75363;DHT22;64122;51.988;5.892;2023-03-12T14:48:54;13.34;59.80
75363;DHT22;64122;51.988;5.892;2023-03-12T14:51:25;13.32;60.06
75363;DHT22;64122;51.988;5.892;2023-03-12T14:53:55;13.26;59.79
75363;DHT22;64122;51.988;5.892;2023-03-12T14:56:31;13.27;60.04
75363;DHT22;64122;51.988;5.892;2023-03-12T14:59:22;13.26;60.18
75363;DHT22;64122;51.988;5.892;2023-03-12T15:01:57;13.24;59.92
75363;DHT22;64122;51.988;5.892;2023-03-12T15:04:32;13.21;59.82
75363;DHT22;64122;51.988;5.892;2023-03-12T15:07:03;13.12;59.89
75363;DHT22;64122;51.988;5.892;2023-03-12T15:09:34;13.14;60.22
75363;DHT22;64122;51.988;5.892;2023-03-12T15:12:06;13.14;60.37
75363;DHT22;64122;51.988;5.892;2023-03-12T15:14:39;13.12;60.09
75363;DHT22;64122;51.988;5.892;2023-03-12T15:17:10;13.08;60.82
75363;DHT22;64122;51.988;5.892;2023-03-12T15:19:45;13.17;59.53
75363;DHT22;64122;51.988;5.892;2023-03-12T15:22:17;13.16;59.18
75363;DHT22;64122;51.988;5.892;2023-03-12T15:24:48;13.18;58.72
75363;DHT22;64122;51.988;5.892;2023-03-12T15:27:19;13.19;58.79
75363;DHT22;64122;51.988;5.892;2023-03-12T15:29:50;13.20;58.64
75363;DHT22;64122;51.988;5.892;2023-03-12T15:32:21;13.19;58.61
75363;DHT22;64122;51.988;5.892;2023-03-12T15:34:54;13.06;58.33
75363;DHT22;64122;51.988;5.892;2023-03-12T15:37:26;13.05;58.51
75363;DHT22;64122;51.988;5.892;2023-03-12T15:40:00;13.02;58.07
75363;DHT22;64122;51.988;5.892;2023-03-12T15:42:37;12.95;58.32
75363;DHT22;64122;51.988;5.892;2023-03-12T15:45:17;12.92;58.51
75363;DHT22;64122;51.988;5.892;2023-03-12T15:47:47;12.89;58.62
75363;DHT22;64122;51.988;5.892;2023-03-12T15:50:22;12.85;58.79
75363;DHT22;64122;51.988;5.892;2023-03-12T15:53:00;12.85;58.89
75363;DHT22;64122;51.988;5.892;2023-03-12T15:55:31;12.80;59.00
75363;DHT22;64122;51.988;5.892;2023-03-12T15:58:01;12.86;59.15
75363;DHT22;64122;51.988;5.892;2023-03-12T16:00:41;12.78;58.96
75363;DHT22;64122;51.988;5.892;2023-03-12T16:03:15;12.75;59.00
75363;DHT22;64122;51.988;5.892;2023-03-12T16:05:48;12.74;59.39
75363;DHT22;64122;51.988;5.892;2023-03-12T16:08:19;12.67;59.40
75363;DHT22;64122;51.988;5.892;2023-03-12T16:10:51;12.66;59.67
75363;DHT22;64122;51.988;5.892;2023-03-12T16:13:23;12.61;59.82
75363;DHT22;64122;51.988;5.892;2023-03-12T16:15:57;12.50;60.22
75363;DHT22;64122;51.988;5.892;2023-03-12T16:18:27;12.48;60.47
75363;DHT22;64122;51.988;5.892;2023-03-12T16:20:59;12.45;60.57
75363;DHT22;64122;51.988;5.892;2023-03-12T16:23:29;12.44;60.84
75363;DHT22;64122;51.988;5.892;2023-03-12T16:25:58;12.42;61.00